Terminal Aerodrome Forecast
Issued by NWS Cleveland, OH

Home | Current Version | Previous Version | Text Only | Print | Product List | Glossary On
Versions: 1 2 3 4 5 6 7 8 9 10 11 12 13 14 15 16 17 18 19 20 21 22 23 24
000
FTUS41 KCLE 011000 AAA
TAFERI
TAF AMD
KERI 011028Z 0110/0206 VRB04KT P6SM BKN040 OVC070
      TEMPO 0110/0114 6SM -SHSN BKN015
     FM011700 28006KT P6SM SCT040 BKN060
     FM012200 VRB05KT P6SM BKN120=

USA.gov is the U.S. government's official web portal to all federal, state and local government web resources and services.